Time;durP1;ratioP1;P1;durP2;ratioP2;P2;SDS_P1;SDS_P2;PMS_P1;PMS_P2;Temp;Humidity;BMP_temperature;BMP_pressure;BME280_temperature;BME280_humidity;BME280_pressure;Samples;Min_cycle;Max_cycle;Signal;HPM_P1;HPM_P2
2022/12/03 00:02:54;;;;;;;114.28;35.28;;;;;;;;;;6284099;28;20045;-63
2022/12/03 00:05:55;;;;;;;108.10;32.90;;;;;;;;;;6284594;28;20473;-62
2022/12/03 00:08:55;;;;;;;100.78;29.80;;;;;;;;;;6292955;28;20417;-67
2022/12/03 00:11:56;;;;;;;88.32;28.80;;;;;;;;;;6286393;28;20043;-62
2022/12/03 00:14:56;;;;;;;99.13;29.92;;;;;;;;;;6286637;28;20048;-63
2022/12/03 00:17:57;;;;;;;92.32;31.05;;;;;;;;;;6285418;28;20525;-62
2022/12/03 00:20:57;;;;;;;103.15;29.70;;;;;;;;;;6284676;28;20051;-63
2022/12/03 00:23:59;;;;;;;102.55;30.00;;;;;;;;;;6286980;28;20076;-67
2022/12/03 00:26:59;;;;;;;120.07;31.08;;;;;;;;;;6265382;28;20535;-63
2022/12/03 00:30:00;;;;;;;104.82;30.52;;;;;;;;;;6283536;28;20040;-63
2022/12/03 00:33:00;;;;;;;109.93;32.30;;;;;;;;;;6284279;28;20062;-68
2022/12/03 00:36:01;;;;;;;103.88;31.13;;;;;;;;;;6290127;28;20088;-64
2022/12/03 00:39:02;;;;;;;118.07;35.55;;;;;;;;;;6285868;28;22014;-67
2022/12/03 00:42:03;;;;;;;114.60;34.20;;;;;;;;;;6284416;28;20510;-64
2022/12/03 00:45:04;;;;;;;101.03;31.10;;;;;;;;;;6286822;28;20055;-62
2022/12/03 00:48:05;;;;;;;104.10;32.00;;;;;;;;;;6285174;28;20404;-66
2022/12/03 00:51:05;;;;;;;101.38;30.45;;;;;;;;;;6282558;28;20068;-63
2022/12/03 00:54:06;;;;;;;94.80;29.23;;;;;;;;;;6286164;28;20057;-62
2022/12/03 00:57:07;;;;;;;112.07;32.05;;;;;;;;;;6284533;28;20056;-62
2022/12/03 01:00:09;;;;;;;105.50;35.20;;;;;;;;;;6282757;28;20054;-62
2022/12/03 01:03:10;;;;;;;108.35;32.38;;;;;;;;;;6283212;28;20412;-62
2022/12/03 01:06:10;;;;;;;104.18;31.60;;;;;;;;;;6284757;28;20059;-62
2022/12/03 01:09:11;;;;;;;94.53;29.67;;;;;;;;;;6288453;28;20055;-63
2022/12/03 01:12:11;;;;;;;104.40;31.02;;;;;;;;;;6285755;28;20124;-62
2022/12/03 01:15:12;;;;;;;97.60;30.10;;;;;;;;;;6288426;28;20474;-66
2022/12/03 01:18:13;;;;;;;102.55;28.98;;;;;;;;;;6287885;28;20437;-65
2022/12/03 01:21:13;;;;;;;90.78;28.83;;;;;;;;;;6276723;28;20045;-64
2022/12/03 01:24:14;;;;;;;94.78;28.73;;;;;;;;;;6283223;28;20044;-63
2022/12/03 01:27:14;;;;;;;112.88;33.85;;;;;;;;;;6284469;28;20036;-62
2022/12/03 01:30:15;;;;;;;95.68;29.02;;;;;;;;;;6284445;28;20178;-62
2022/12/03 01:33:15;;;;;;;102.70;29.17;;;;;;;;;;6284604;28;20051;-62
2022/12/03 01:36:16;;;;;;;100.43;30.35;;;;;;;;;;6284763;28;20094;-64
2022/12/03 01:39:17;;;;;;;97.07;31.90;;;;;;;;;;6284592;28;21376;-67
2022/12/03 01:42:47;;;;;;;104.97;31.90;;;;;;;;;;6285341;28;20544;-63
2022/12/03 01:45:47;;;;;;;95.82;28.20;;;;;;;;;;6284553;28;20843;-66
2022/12/03 01:48:51;;;;;;;93.07;28.92;;;;;;;;;;6285890;28;20048;-62
2022/12/03 01:51:52;;;;;;;93.15;29.15;;;;;;;;;;6283973;28;20045;-62
2022/12/03 01:54:58;;;;;;;101.43;30.15;;;;;;;;;;6285730;28;20041;-62
2022/12/03 01:58:00;;;;;;;93.40;28.88;;;;;;;;;;6287015;28;20128;-65
2022/12/03 02:01:03;;;;;;;;;;;;;;;;;;6286416;28;20538;-62
2022/12/03 02:04:03;;;;;;;93.50;27.30;;;;;;;;;;6282713;28;20371;-64
2022/12/03 02:07:31;;;;;;;91.93;27.65;;;;;;;;;;6285508;28;20052;-62
2022/12/03 02:10:34;;;;;;;85.43;25.17;;;;;;;;;;6287876;28;20040;-62
2022/12/03 02:13:35;;;;;;;85.82;26.02;;;;;;;;;;6288402;28;20056;-67
2022/12/03 02:16:37;;;;;;;86.63;26.35;;;;;;;;;;6288980;28;20044;-62
2022/12/03 02:19:38;;;;;;;94.13;26.45;;;;;;;;;;6290154;28;20052;-62
2022/12/03 02:22:45;;;;;;;84.70;25.17;;;;;;;;;;6289405;28;20474;-62
2022/12/03 02:25:46;;;;;;;89.85;27.40;;;;;;;;;;6286869;28;20123;-61
2022/12/03 02:28:47;;;;;;;83.85;25.15;;;;;;;;;;6291662;28;20553;-62
2022/12/03 02:31:47;;;;;;;87.75;28.20;;;;;;;;;;6288971;28;20040;-62
2022/12/03 02:34:49;;;;;;;92.70;27.65;;;;;;;;;;6291831;28;20044;-63
2022/12/03 02:37:54;;;;;;;85.28;26.65;;;;;;;;;;6293500;28;20432;-63
2022/12/03 02:40:58;;;;;;;88.75;26.02;;;;;;;;;;6295963;28;20071;-62
2022/12/03 02:43:59;;;;;;;86.53;26.83;;;;;;;;;;6290475;28;20105;-62
2022/12/03 02:47:00;;;;;;;83.20;25.42;;;;;;;;;;6292054;28;20498;-62
2022/12/03 02:50:01;;;;;;;82.00;27.30;;;;;;;;;;6289529;28;20052;-65
2022/12/03 02:53:06;;;;;;;90.00;26.10;;;;;;;;;;6289982;28;20135;-63
2022/12/03 02:56:09;;;;;;;85.25;26.55;;;;;;;;;;6291628;28;20161;-63
2022/12/03 02:59:10;;;;;;;79.63;26.02;;;;;;;;;;6289755;28;20131;-62
2022/12/03 03:02:13;;;;;;;89.07;26.90;;;;;;;;;;6289893;28;20071;-61
2022/12/03 03:05:14;;;;;;;84.15;27.67;;;;;;;;;;6286907;28;20056;-66
2022/12/03 03:08:16;;;;;;;85.03;27.60;;;;;;;;;;6287131;28;20642;-66
2022/12/03 03:11:17;;;;;;;90.80;27.50;;;;;;;;;;6290801;28;20063;-67
2022/12/03 03:14:17;;;;;;;83.38;26.77;;;;;;;;;;6288572;28;20384;-63
2022/12/03 03:17:18;;;;;;;88.75;28.63;;;;;;;;;;6286112;28;20041;-62
2022/12/03 03:20:19;;;;;;;80.30;26.50;;;;;;;;;;6286938;28;20056;-64
2022/12/03 03:23:22;;;;;;;94.90;29.40;;;;;;;;;;6286614;28;20040;-62
2022/12/03 03:26:24;;;;;;;86.15;26.85;;;;;;;;;;6285053;28;20048;-62
2022/12/03 03:29:24;;;;;;;75.03;23.70;;;;;;;;;;6292120;28;20076;-66
2022/12/03 03:32:26;;;;;;;86.20;26.00;;;;;;;;;;6293286;28;20048;-63
2022/12/03 03:35:27;;;;;;;88.53;27.37;;;;;;;;;;6290128;28;20058;-63
2022/12/03 03:38:29;;;;;;;80.05;27.27;;;;;;;;;;6291700;28;20051;-62
2022/12/03 03:41:30;;;;;;;87.70;25.83;;;;;;;;;;6286755;28;20079;-63
2022/12/03 03:44:31;;;;;;;88.85;27.70;;;;;;;;;;6289469;28;20305;-66
2022/12/03 03:47:32;;;;;;;97.93;28.83;;;;;;;;;;6286101;28;20044;-62
2022/12/03 03:50:33;;;;;;;86.05;27.55;;;;;;;;;;6288922;28;20052;-63
2022/12/03 03:53:37;;;;;;;82.32;26.15;;;;;;;;;;6292879;28;20391;-62
2022/12/03 03:56:38;;;;;;;87.88;26.77;;;;;;;;;;6286772;28;20054;-63
2022/12/03 03:59:39;;;;;;;97.28;26.58;;;;;;;;;;6289863;28;20090;-61
2022/12/03 04:02:40;;;;;;;92.50;28.20;;;;;;;;;;6284931;28;20036;-62
2022/12/03 04:05:41;;;;;;;90.70;26.90;;;;;;;;;;6288800;28;20079;-62
2022/12/03 04:08:42;;;;;;;90.65;27.13;;;;;;;;;;6289065;28;20101;-62
2022/12/03 04:15:02;;;;;;;92.53;26.60;;;;;;;;;;6286834;28;20101;-62
2022/12/03 04:24:45;;;;;;;101.72;29.45;;;;;;;;;;6282548;28;20040;-62
2022/12/03 04:37:43;;;;;;;102.20;29.83;;;;;;;;;;6293314;28;20491;-63
2022/12/03 04:40:59;;;;;;;98.57;29.67;;;;;;;;;;6285329;28;20059;-63
2022/12/03 04:47:21;;;;;;;107.80;28.77;;;;;;;;;;6287331;28;20415;-62
2022/12/03 04:50:21;;;;;;;93.35;29.08;;;;;;;;;;6285269;28;20037;-62
2022/12/03 04:53:22;;;;;;;91.10;28.45;;;;;;;;;;6286982;28;20054;-67
2022/12/03 04:56:22;;;;;;;108.18;27.92;;;;;;;;;;6286249;28;20052;-63
2022/12/03 04:59:23;;;;;;;103.07;30.33;;;;;;;;;;6291745;28;20052;-62
2022/12/03 05:02:24;;;;;;;119.25;32.00;;;;;;;;;;6289016;28;20052;-63
2022/12/03 05:05:25;;;;;;;96.88;27.90;;;;;;;;;;6284175;28;20046;-62
2022/12/03 05:08:25;;;;;;;102.50;28.60;;;;;;;;;;6285607;28;20037;-62
2022/12/03 05:11:26;;;;;;;107.72;29.63;;;;;;;;;;6291105;28;20160;-61
2022/12/03 05:14:26;;;;;;;103.15;28.50;;;;;;;;;;6285169;28;20094;-62
2022/12/03 05:17:27;;;;;;;111.78;31.00;;;;;;;;;;6286477;28;20048;-62
2022/12/03 05:20:42;;;;;;;110.47;30.67;;;;;;;;;;6286440;28;20074;-62
2022/12/03 05:23:43;;;;;;;106.78;29.63;;;;;;;;;;6285386;28;20430;-62
2022/12/03 05:26:43;;;;;;;104.75;28.70;;;;;;;;;;6290316;28;20048;-62
2022/12/03 05:29:44;;;;;;;114.90;30.92;;;;;;;;;;6288154;28;20053;-62
2022/12/03 05:32:44;;;;;;;115.65;30.05;;;;;;;;;;6285570;28;20049;-62
2022/12/03 05:35:46;;;;;;;113.57;29.55;;;;;;;;;;6284358;28;20068;-66
2022/12/03 05:38:46;;;;;;;107.00;28.02;;;;;;;;;;6285706;28;20044;-63
2022/12/03 05:45:06;;;;;;;113.28;29.00;;;;;;;;;;6288849;28;20044;-62
2022/12/03 05:48:10;;;;;;;103.40;28.70;;;;;;;;;;6295484;28;20106;-62
2022/12/03 05:51:10;;;;;;;115.63;31.52;;;;;;;;;;6296378;28;20423;-62
2022/12/03 05:54:11;;;;;;;107.20;27.35;;;;;;;;;;6296315;28;20040;-63
2022/12/03 05:57:11;;;;;;;105.40;27.08;;;;;;;;;;6294864;28;20410;-62
2022/12/03 06:00:16;;;;;;;118.28;33.17;;;;;;;;;;6296637;28;20484;-67
2022/12/03 06:03:17;;;;;;;105.82;27.02;;;;;;;;;;6295931;28;20091;-62
2022/12/03 06:06:17;;;;;;;118.60;31.35;;;;;;;;;;6294994;28;20048;-63
2022/12/03 06:09:18;;;;;;;113.50;29.13;;;;;;;;;;6296076;28;20071;-64
2022/12/03 06:12:19;;;;;;;107.45;29.77;;;;;;;;;;6294412;28;20140;-65
2022/12/03 06:15:19;;;;;;;113.70;30.02;;;;;;;;;;6292727;28;20479;-65
2022/12/03 06:18:20;;;;;;;123.88;28.58;;;;;;;;;;6293937;28;20533;-65
2022/12/03 06:21:20;;;;;;;120.85;33.38;;;;;;;;;;6296104;28;20053;-66
2022/12/03 06:24:21;;;;;;;110.80;33.22;;;;;;;;;;6294180;28;20052;-68
2022/12/03 06:27:22;;;;;;;114.03;29.63;;;;;;;;;;6294121;28;20048;-64
2022/12/03 06:30:22;;;;;;;111.30;29.92;;;;;;;;;;6295329;28;20048;-66
2022/12/03 06:33:23;;;;;;;114.75;30.95;;;;;;;;;;6293879;28;20067;-62
2022/12/03 06:36:26;;;;;;;121.30;31.15;;;;;;;;;;6289938;28;20059;-62
2022/12/03 06:39:26;;;;;;;112.78;29.05;;;;;;;;;;6294123;28;20090;-64
2022/12/03 06:42:27;;;;;;;105.15;28.90;;;;;;;;;;6287602;28;20945;-62
2022/12/03 06:45:28;;;;;;;101.78;28.30;;;;;;;;;;6287249;28;20040;-62
2022/12/03 06:48:28;;;;;;;121.93;33.17;;;;;;;;;;6287662;28;20147;-63
2022/12/03 06:51:29;;;;;;;137.35;35.60;;;;;;;;;;6289440;28;20059;-61
2022/12/03 06:54:30;;;;;;;119.70;34.33;;;;;;;;;;6289561;28;20066;-62
2022/12/03 06:57:31;;;;;;;111.65;30.33;;;;;;;;;;6289288;28;20660;-62
2022/12/03 07:00:31;;;;;;;126.00;34.33;;;;;;;;;;6287313;28;20048;-62
2022/12/03 07:03:32;;;;;;;132.23;34.05;;;;;;;;;;6288099;28;20048;-63
2022/12/03 07:06:33;;;;;;;121.93;32.67;;;;;;;;;;6284801;28;20123;-62
2022/12/03 07:09:33;;;;;;;126.63;33.58;;;;;;;;;;6287326;28;20071;-62
2022/12/03 07:12:34;;;;;;;108.13;28.42;;;;;;;;;;6285176;28;20713;-62
2022/12/03 07:15:34;;;;;;;120.82;30.67;;;;;;;;;;6282538;28;20055;-66
2022/12/03 07:18:35;;;;;;;120.45;31.38;;;;;;;;;;6288800;28;20114;-63
2022/12/03 07:21:35;;;;;;;119.00;32.55;;;;;;;;;;6288409;28;20052;-62
2022/12/03 07:24:36;;;;;;;110.30;28.98;;;;;;;;;;6291088;28;20127;-62
2022/12/03 07:27:37;;;;;;;124.78;29.38;;;;;;;;;;6289695;28;20253;-62
2022/12/03 07:30:37;;;;;;;116.10;29.08;;;;;;;;;;6288139;28;20135;-62
2022/12/03 07:33:38;;;;;;;123.03;30.67;;;;;;;;;;6289088;28;20396;-63
2022/12/03 07:36:38;;;;;;;106.10;28.50;;;;;;;;;;6285778;28;20064;-61
2022/12/03 07:39:39;;;;;;;114.10;29.08;;;;;;;;;;6288303;28;20054;-62
2022/12/03 07:42:40;;;;;;;120.35;30.85;;;;;;;;;;6287766;28;20052;-61
2022/12/03 07:45:40;;;;;;;130.85;32.33;;;;;;;;;;6285394;28;20434;-62
2022/12/03 07:48:41;;;;;;;123.30;32.00;;;;;;;;;;6289627;28;20072;-67
2022/12/03 07:51:41;;;;;;;124.95;33.90;;;;;;;;;;6290695;28;20467;-61
2022/12/03 07:54:42;;;;;;;133.30;31.50;;;;;;;;;;6287732;28;20049;-66
2022/12/03 07:57:43;;;;;;;129.48;33.67;;;;;;;;;;6268123;28;20059;-62
2022/12/03 08:00:44;;;;;;;144.07;36.08;;;;;;;;;;6282522;28;20144;-62
2022/12/03 08:03:44;;;;;;;135.00;33.17;;;;;;;;;;6273086;28;20056;-62
2022/12/03 08:06:45;;;;;;;129.00;32.40;;;;;;;;;;6287649;28;20451;-63
2022/12/03 08:09:46;;;;;;;128.45;32.65;;;;;;;;;;6279841;28;20064;-61
2022/12/03 08:12:47;;;;;;;131.07;31.58;;;;;;;;;;6266575;28;20041;-61
2022/12/03 08:15:47;;;;;;;129.90;33.67;;;;;;;;;;6264369;28;20053;-63
2022/12/03 08:18:49;;;;;;;123.88;33.03;;;;;;;;;;6270649;28;20495;-61
2022/12/03 08:21:49;;;;;;;128.15;35.47;;;;;;;;;;6287879;28;20055;-66
2022/12/03 08:24:50;;;;;;;135.10;33.60;;;;;;;;;;6285037;28;20072;-62
2022/12/03 08:27:54;;;;;;;114.55;32.25;;;;;;;;;;6285368;28;20063;-62
2022/12/03 08:31:17;;;;;;;135.65;33.80;;;;;;;;;;6289927;28;20048;-62
2022/12/03 08:34:31;;;;;;;145.10;36.28;;;;;;;;;;6285852;28;20064;-62
2022/12/03 08:37:34;;;;;;;147.88;34.05;;;;;;;;;;6287597;28;20514;-63
2022/12/03 08:40:39;;;;;;;133.10;34.05;;;;;;;;;;6288046;28;20067;-61
2022/12/03 08:43:42;;;;;;;147.68;35.58;;;;;;;;;;6286910;28;20045;-61
2022/12/03 08:46:43;;;;;;;144.90;34.83;;;;;;;;;;6287952;28;20522;-62
2022/12/03 08:50:05;;;;;;;148.20;36.77;;;;;;;;;;6287004;28;20044;-62
2022/12/03 08:53:30;;;;;;;150.63;42.35;;;;;;;;;;6284848;28;20056;-62
2022/12/03 09:00:22;;;;;;;130.90;33.03;;;;;;;;;;6268178;28;20041;-61
2022/12/03 09:03:23;;;;;;;120.45;32.05;;;;;;;;;;6284779;28;20066;-66
2022/12/03 09:06:24;;;;;;;125.10;32.70;;;;;;;;;;6287376;28;20043;-64
2022/12/03 09:09:25;;;;;;;128.95;33.00;;;;;;;;;;6291180;28;20044;-64
2022/12/03 09:12:25;;;;;;;131.20;34.22;;;;;;;;;;6283420;28;20052;-62
2022/12/03 09:15:27;;;;;;;138.20;35.55;;;;;;;;;;6285789;28;20468;-62
2022/12/03 09:18:27;;;;;;;128.38;34.35;;;;;;;;;;6285402;28;20295;-62
2022/12/03 09:21:28;;;;;;;138.75;35.15;;;;;;;;;;6291794;28;20438;-62
2022/12/03 09:24:28;;;;;;;146.25;34.70;;;;;;;;;;6295426;28;20048;-62
2022/12/03 09:27:29;;;;;;;158.90;39.22;;;;;;;;;;6297230;28;20032;-61
2022/12/03 09:30:30;;;;;;;159.63;38.38;;;;;;;;;;6296911;28;20037;-61
2022/12/03 09:33:31;;;;;;;141.57;37.00;;;;;;;;;;6295675;28;20067;-62
2022/12/03 09:36:32;;;;;;;132.32;35.00;;;;;;;;;;6297149;28;20063;-62
2022/12/03 09:39:32;;;;;;;146.57;37.33;;;;;;;;;;6296620;28;20044;-61
2022/12/03 09:42:33;;;;;;;135.18;34.88;;;;;;;;;;6295712;28;20056;-64
2022/12/03 09:45:34;;;;;;;146.30;39.30;;;;;;;;;;6295630;28;20555;-62
2022/12/03 09:48:35;;;;;;;149.73;36.97;;;;;;;;;;6296792;28;20032;-64
2022/12/03 09:51:36;;;;;;;147.57;37.03;;;;;;;;;;6296812;28;20049;-65
2022/12/03 09:54:37;;;;;;;155.00;41.60;;;;;;;;;;6294843;28;20403;-63
2022/12/03 09:57:38;;;;;;;157.25;37.40;;;;;;;;;;6296677;28;20045;-62
2022/12/03 10:00:39;;;;;;;148.65;37.42;;;;;;;;;;6296847;28;20045;-62
2022/12/03 10:03:58;;;;;;;153.23;38.20;;;;;;;;;;6294561;28;20794;-66
2022/12/03 10:06:59;;;;;;;141.77;35.33;;;;;;;;;;6295600;28;20408;-67
2022/12/03 10:10:00;;;;;;;131.45;34.33;;;;;;;;;;6296042;28;20045;-66
2022/12/03 10:13:00;;;;;;;141.35;36.85;;;;;;;;;;6295804;28;20051;-66
2022/12/03 10:16:02;;;;;;;141.35;41.92;;;;;;;;;;6295015;28;20064;-62
2022/12/03 10:19:12;;;;;;;147.38;36.15;;;;;;;;;;6295828;28;20131;-66
2022/12/03 10:22:16;;;;;;;150.82;37.22;;;;;;;;;;6292101;28;20434;-66
2022/12/03 10:25:20;;;;;;;139.88;37.53;;;;;;;;;;6294144;28;20052;-67
2022/12/03 10:28:38;;;;;;;136.50;36.95;;;;;;;;;;6294740;28;20139;-63
2022/12/03 10:38:42;;;;;;;141.88;37.72;;;;;;;;;;6294860;28;20059;-66
2022/12/03 10:41:43;;;;;;;141.18;39.38;;;;;;;;;;6293982;28;20054;-62
2022/12/03 10:44:44;;;;;;;156.43;37.70;;;;;;;;;;6295571;28;20040;-63
2022/12/03 10:48:11;;;;;;;144.95;37.17;;;;;;;;;;6295573;28;20123;-64
2022/12/03 10:51:20;;;;;;;152.48;36.53;;;;;;;;;;6293569;28;20376;-62
2022/12/03 10:54:23;;;;;;;155.63;37.80;;;;;;;;;;6294589;28;20044;-64
2022/12/03 10:57:24;;;;;;;154.57;40.60;;;;;;;;;;6294829;28;20479;-64
2022/12/03 11:00:25;;;;;;;137.43;41.28;;;;;;;;;;6294184;28;20063;-67
2022/12/03 11:03:28;;;;;;;173.73;43.58;;;;;;;;;;6292768;28;20048;-62
2022/12/03 11:06:34;;;;;;;144.93;38.53;;;;;;;;;;6294865;28;20062;-63
2022/12/03 11:09:34;;;;;;;144.10;39.08;;;;;;;;;;6295022;28;20059;-66
2022/12/03 11:12:35;;;;;;;148.43;38.50;;;;;;;;;;6292575;28;20044;-63
2022/12/03 11:15:43;;;;;;;165.10;44.42;;;;;;;;;;6294710;28;20044;-62
2022/12/03 11:18:44;;;;;;;148.90;39.78;;;;;;;;;;6294147;28;20448;-63
2022/12/03 11:22:08;;;;;;;169.18;42.58;;;;;;;;;;6293991;28;20045;-65
2022/12/03 11:25:27;;;;;;;167.43;41.63;;;;;;;;;;6288284;28;20056;-64
2022/12/03 11:28:34;;;;;;;151.73;38.53;;;;;;;;;;6291728;28;20071;-67
2022/12/03 11:35:11;;;;;;;180.95;43.17;;;;;;;;;;6294177;28;20059;-62
2022/12/03 11:38:54;;;;;;;158.68;40.78;;;;;;;;;;6292735;28;20045;-62
2022/12/03 11:42:27;;;;;;;148.52;38.65;;;;;;;;;;6291862;28;20055;-63
2022/12/03 11:45:35;;;;;;;179.97;43.37;;;;;;;;;;6291646;28;20052;-65
2022/12/03 11:48:43;;;;;;;181.60;43.88;;;;;;;;;;6293573;28;20094;-63
2022/12/03 11:51:44;;;;;;;174.63;44.00;;;;;;;;;;6292335;28;20418;-65
2022/12/03 11:54:48;;;;;;;170.70;46.80;;;;;;;;;;6293117;28;20040;-67
2022/12/03 11:57:59;;;;;;;160.60;43.08;;;;;;;;;;6293573;28;20054;-67
2022/12/03 12:01:05;;;;;;;171.55;44.40;;;;;;;;;;6292815;28;20063;-62
2022/12/03 12:04:26;;;;;;;190.52;45.42;;;;;;;;;;6291373;28;20098;-66
2022/12/03 12:07:34;;;;;;;174.63;44.20;;;;;;;;;;6293128;28;20407;-62
2022/12/03 12:10:36;;;;;;;175.95;41.55;;;;;;;;;;6293104;28;20051;-64
2022/12/03 12:13:37;;;;;;;168.13;42.85;;;;;;;;;;6292920;28;20138;-64
2022/12/03 12:16:54;;;;;;;161.73;44.85;;;;;;;;;;6274348;28;20044;-64
2022/12/03 12:23:52;;;;;;;174.68;45.72;;;;;;;;;;6291184;28;20040;-63
2022/12/03 12:26:53;;;;;;;153.23;40.55;;;;;;;;;;6284938;28;20452;-63
2022/12/03 12:30:14;;;;;;;170.40;42.40;;;;;;;;;;6284365;28;20041;-63
2022/12/03 12:36:58;;;;;;;167.23;42.63;;;;;;;;;;6277186;28;20544;-65
2022/12/03 12:40:05;;;;;;;155.55;39.95;;;;;;;;;;6276997;28;20048;-66
2022/12/03 12:43:17;;;;;;;151.45;37.40;;;;;;;;;;6274359;28;20508;-62
2022/12/03 12:46:18;;;;;;;175.73;44.00;;;;;;;;;;6274476;28;20049;-63
2022/12/03 12:49:25;;;;;;;168.73;40.25;;;;;;;;;;6276416;28;20872;-64
2022/12/03 12:53:03;;;;;;;160.07;42.50;;;;;;;;;;6280434;28;20071;-62
2022/12/03 12:56:29;;;;;;;157.25;40.38;;;;;;;;;;6272079;28;20056;-65
2022/12/03 12:59:29;;;;;;;158.30;39.95;;;;;;;;;;6274768;28;20094;-61
2022/12/03 13:02:30;;;;;;;148.40;40.95;;;;;;;;;;6269688;28;20159;-62
2022/12/03 13:06:08;;;;;;;168.45;42.25;;;;;;;;;;6270054;28;20754;-64
2022/12/03 13:09:18;;;;;;;165.77;42.60;;;;;;;;;;6271971;28;20040;-66
2022/12/03 13:12:21;;;;;;;165.77;43.20;;;;;;;;;;6272206;28;20076;-61
2022/12/03 13:15:49;;;;;;;147.63;37.13;;;;;;;;;;6271037;28;20045;-62
2022/12/03 13:18:54;;;;;;;149.45;39.35;;;;;;;;;;6272801;28;20045;-62
2022/12/03 13:26:12;;;;;;;162.18;41.35;;;;;;;;;;6272955;28;20072;-61
2022/12/03 13:29:14;;;;;;;158.20;41.88;;;;;;;;;;6280643;28;20094;-61
2022/12/03 13:32:18;;;;;;;;;;;;;;;;;;6279152;28;20045;-61
2022/12/03 13:35:35;;;;;;;147.13;37.95;;;;;;;;;;6276712;28;20310;-61
2022/12/03 13:38:35;;;;;;;166.02;41.80;;;;;;;;;;6279345;28;20466;-65
2022/12/03 13:44:55;;;;;;;187.20;50.13;;;;;;;;;;6280468;28;20056;-63
2022/12/03 13:48:33;;;;;;;180.75;45.25;;;;;;;;;;6273066;28;20048;-64
2022/12/03 13:51:34;;;;;;;161.57;41.38;;;;;;;;;;6280013;28;21082;-66
2022/12/03 13:54:38;;;;;;;168.55;45.92;;;;;;;;;;6281219;28;20056;-63
2022/12/03 13:57:38;;;;;;;174.43;46.55;;;;;;;;;;6279143;28;20056;-65
2022/12/03 14:00:39;;;;;;;155.65;42.17;;;;;;;;;;6278891;28;20090;-63
2022/12/03 14:03:39;;;;;;;156.93;41.03;;;;;;;;;;6281151;28;20410;-64
2022/12/03 14:06:41;;;;;;;171.57;45.35;;;;;;;;;;6279312;28;20049;-66
2022/12/03 14:09:42;;;;;;;162.27;42.97;;;;;;;;;;6282765;28;20097;-62
2022/12/03 14:12:48;;;;;;;172.73;45.25;;;;;;;;;;6283571;28;20430;-66
2022/12/03 14:15:48;;;;;;;176.73;43.97;;;;;;;;;;6282776;28;20484;-66
2022/12/03 14:18:49;;;;;;;164.80;43.63;;;;;;;;;;6284533;28;20040;-70
2022/12/03 14:21:50;;;;;;;186.15;46.42;;;;;;;;;;6283142;28;20051;-71
2022/12/03 14:24:52;;;;;;;178.13;49.08;;;;;;;;;;6285297;28;20503;-65
2022/12/03 14:27:54;;;;;;;187.93;48.50;;;;;;;;;;6283118;28;20079;-72
2022/12/03 14:30:54;;;;;;;188.40;49.17;;;;;;;;;;6283118;28;20060;-70
2022/12/03 14:33:55;;;;;;;190.35;50.55;;;;;;;;;;6284524;28;21191;-61
2022/12/03 14:36:56;;;;;;;168.25;41.80;;;;;;;;;;6282728;28;20052;-63
2022/12/03 14:39:56;;;;;;;184.48;46.00;;;;;;;;;;6282713;28;20044;-62
2022/12/03 14:42:57;;;;;;;169.93;40.63;;;;;;;;;;6283813;28;20064;-62
2022/12/03 14:46:12;;;;;;;178.63;46.88;;;;;;;;;;6282836;28;20534;-62
2022/12/03 14:49:13;;;;;;;153.63;39.90;;;;;;;;;;6283486;28;20056;-62
2022/12/03 14:52:14;;;;;;;150.00;38.75;;;;;;;;;;6281832;28;20511;-62
2022/12/03 14:55:19;;;;;;;168.70;44.63;;;;;;;;;;6279982;28;20048;-61
2022/12/03 14:58:25;;;;;;;174.15;46.03;;;;;;;;;;6282804;28;20520;-69
2022/12/03 15:01:26;;;;;;;148.77;40.67;;;;;;;;;;6281927;28;20048;-64
2022/12/03 15:04:26;;;;;;;165.73;40.88;;;;;;;;;;6279207;28;20079;-62
2022/12/03 15:07:28;;;;;;;179.52;45.33;;;;;;;;;;6282324;28;20929;-60
2022/12/03 15:10:28;;;;;;;171.15;42.95;;;;;;;;;;6281155;28;20066;-64
2022/12/03 15:13:42;;;;;;;172.40;45.53;;;;;;;;;;6280968;28;20554;-63
2022/12/03 15:16:45;;;;;;;158.48;42.15;;;;;;;;;;6232067;28;20056;-62
2022/12/03 15:20:07;;;;;;;157.52;38.63;;;;;;;;;;6281336;28;20084;-62
2022/12/03 15:23:08;;;;;;;154.05;39.15;;;;;;;;;;6280671;28;20056;-62
2022/12/03 15:26:08;;;;;;;153.48;39.08;;;;;;;;;;6280347;28;20048;-64
2022/12/03 15:29:09;;;;;;;160.65;39.50;;;;;;;;;;6264157;28;20048;-62
2022/12/03 15:32:41;;;;;;;163.45;42.10;;;;;;;;;;6280310;28;20127;-64
2022/12/03 15:35:43;;;;;;;164.32;41.20;;;;;;;;;;6258781;28;20057;-63
2022/12/03 15:38:43;;;;;;;177.35;42.40;;;;;;;;;;6278586;28;20040;-63
2022/12/03 15:41:44;;;;;;;156.60;38.70;;;;;;;;;;6280220;28;20053;-63
2022/12/03 15:44:45;;;;;;;156.45;39.67;;;;;;;;;;6262261;28;20052;-66
2022/12/03 15:47:45;;;;;;;169.55;42.33;;;;;;;;;;6279091;28;20095;-61
2022/12/03 15:50:46;;;;;;;186.25;46.58;;;;;;;;;;6279616;28;20107;-67
2022/12/03 15:53:47;;;;;;;172.75;42.28;;;;;;;;;;6280710;28;20530;-62
2022/12/03 15:56:47;;;;;;;163.02;43.95;;;;;;;;;;6279257;28;20052;-62
2022/12/03 15:59:48;;;;;;;158.45;42.95;;;;;;;;;;6280984;28;20075;-62
2022/12/03 16:02:50;;;;;;;179.02;42.85;;;;;;;;;;6280650;28;21150;-63
2022/12/03 16:05:55;;;;;;;175.77;44.15;;;;;;;;;;6277313;28;20471;-62
2022/12/03 16:08:56;;;;;;;165.32;42.22;;;;;;;;;;6280739;28;20048;-63
2022/12/03 16:11:56;;;;;;;174.90;44.45;;;;;;;;;;6280466;28;20075;-62
2022/12/03 16:14:57;;;;;;;177.45;43.22;;;;;;;;;;6278626;28;20140;-62
2022/12/03 16:17:58;;;;;;;177.43;45.50;;;;;;;;;;6279174;28;20070;-62
2022/12/03 16:20:59;;;;;;;178.35;45.92;;;;;;;;;;6262791;28;20143;-62
2022/12/03 16:24:04;;;;;;;183.07;44.10;;;;;;;;;;6279970;28;20139;-63
2022/12/03 16:27:05;;;;;;;172.85;44.90;;;;;;;;;;6277135;28;20066;-60
2022/12/03 16:30:11;;;;;;;166.05;43.15;;;;;;;;;;6279491;28;20045;-62
2022/12/03 16:33:16;;;;;;;162.70;40.67;;;;;;;;;;6280597;28;20094;-62
2022/12/03 16:36:25;;;;;;;175.30;44.28;;;;;;;;;;6276130;28;20060;-63
2022/12/03 16:39:39;;;;;;;174.50;41.70;;;;;;;;;;6280438;28;20049;-63
2022/12/03 16:42:41;;;;;;;170.10;43.63;;;;;;;;;;6280547;28;20442;-63
2022/12/03 16:49:16;;;;;;;149.63;39.28;;;;;;;;;;6269114;28;20058;-61
2022/12/03 16:52:26;;;;;;;167.82;41.05;;;;;;;;;;6281373;28;20052;-62
2022/12/03 16:55:27;;;;;;;139.05;37.40;;;;;;;;;;6279811;28;20102;-63
2022/12/03 16:58:28;;;;;;;132.15;35.55;;;;;;;;;;6278702;28;20110;-64
2022/12/03 17:01:28;;;;;;;166.10;39.63;;;;;;;;;;6281138;28;20098;-62
2022/12/03 17:04:29;;;;;;;153.02;45.03;;;;;;;;;;6281255;28;20072;-62
2022/12/03 17:07:30;;;;;;;152.25;40.47;;;;;;;;;;6279715;28;20080;-62
2022/12/03 17:10:30;;;;;;;153.85;40.35;;;;;;;;;;6278612;28;20429;-62
2022/12/03 17:13:31;;;;;;;145.85;39.05;;;;;;;;;;6279119;28;20059;-62
2022/12/03 17:16:32;;;;;;;148.65;40.22;;;;;;;;;;6279943;28;20083;-61
2022/12/03 17:19:32;;;;;;;161.10;40.85;;;;;;;;;;6278677;28;20427;-60
2022/12/03 17:22:33;;;;;;;152.23;40.72;;;;;;;;;;6281891;28;20049;-64
2022/12/03 17:25:34;;;;;;;162.77;41.35;;;;;;;;;;6277957;28;20408;-64
2022/12/03 17:28:35;;;;;;;156.77;40.42;;;;;;;;;;6279471;28;20689;-64
2022/12/03 17:31:35;;;;;;;160.50;47.88;;;;;;;;;;6279246;28;20051;-64
2022/12/03 17:34:36;;;;;;;136.20;40.85;;;;;;;;;;6281251;28;20057;-63
2022/12/03 17:37:37;;;;;;;137.65;38.55;;;;;;;;;;6278020;28;20068;-63
2022/12/03 17:40:38;;;;;;;140.40;38.78;;;;;;;;;;6280096;28;20061;-61
2022/12/03 17:43:38;;;;;;;153.40;40.15;;;;;;;;;;6285458;28;20130;-61
2022/12/03 17:46:39;;;;;;;151.50;40.78;;;;;;;;;;6282463;28;20491;-61
2022/12/03 17:49:39;;;;;;;158.20;41.20;;;;;;;;;;6283796;28;20052;-61
2022/12/03 17:52:40;;;;;;;151.15;47.22;;;;;;;;;;6285891;28;20526;-63
2022/12/03 17:55:41;;;;;;;179.57;47.90;;;;;;;;;;6283553;28;20065;-68
2022/12/03 17:58:41;;;;;;;167.70;45.78;;;;;;;;;;6284385;28;20053;-62
2022/12/03 18:01:44;;;;;;;159.05;41.95;;;;;;;;;;6284663;28;20048;-60
2022/12/03 18:04:44;;;;;;;161.00;43.67;;;;;;;;;;6284521;28;20066;-62
2022/12/03 18:07:45;;;;;;;145.32;40.88;;;;;;;;;;6282542;28;20414;-66
2022/12/03 18:10:45;;;;;;;157.50;41.72;;;;;;;;;;6283338;28;20059;-62
2022/12/03 18:13:46;;;;;;;159.15;45.13;;;;;;;;;;6284097;28;20048;-64
2022/12/03 18:16:47;;;;;;;152.30;40.83;;;;;;;;;;6282571;28;20056;-63
2022/12/03 18:19:47;;;;;;;156.45;42.55;;;;;;;;;;6282524;28;20053;-63
2022/12/03 18:22:48;;;;;;;166.18;40.75;;;;;;;;;;6284460;28;20537;-64
2022/12/03 18:25:48;;;;;;;158.07;43.92;;;;;;;;;;6282519;28;20044;-63
2022/12/03 18:28:49;;;;;;;160.55;42.55;;;;;;;;;;6282890;28;20570;-70
2022/12/03 18:31:50;;;;;;;164.00;43.50;;;;;;;;;;6284164;28;20044;-64
2022/12/03 18:34:50;;;;;;;165.80;43.50;;;;;;;;;;6283010;28;20059;-64